createdAt,value
2023-01-29T00:00:10.286Z,98094.81
2023-01-29T00:02:41.578Z,98097.81
2023-01-29T00:05:26.413Z,98090.00
2023-01-29T00:07:55.755Z,98098.75
2023-01-29T00:10:26.269Z,98083.53
2023-01-29T00:12:54.636Z,98079.69
2023-01-29T00:15:23.408Z,98078.94
2023-01-29T00:17:51.769Z,98076.34
2023-01-29T00:20:20.739Z,98072.06
2023-01-29T00:22:48.938Z,98067.09
2023-01-29T00:25:17.418Z,98063.88
2023-01-29T00:27:47.222Z,98064.31
2023-01-29T00:30:20.080Z,98060.63
2023-01-29T00:32:48.511Z,98058.94
2023-01-29T00:35:16.997Z,98055.81
2023-01-29T00:37:45.461Z,98061.09
2023-01-29T00:40:14.309Z,98052.81
2023-01-29T00:43:00.455Z,98046.75
2023-01-29T00:45:30.407Z,98044.13
2023-01-29T00:47:58.932Z,98055.00
2023-01-29T00:50:27.206Z,98049.84
2023-01-29T00:52:55.730Z,98040.44
2023-01-29T00:55:24.367Z,98039.50
2023-01-29T00:57:52.437Z,98037.81
2023-01-29T01:00:22.331Z,98039.38
2023-01-29T01:03:06.152Z,98026.97
2023-01-29T01:05:34.784Z,98021.47
2023-01-29T01:08:03.113Z,98030.44
2023-01-29T01:10:32.354Z,98018.66
2023-01-29T01:13:02.327Z,98022.59
2023-01-29T01:15:33.319Z,98030.47
2023-01-29T01:18:03.931Z,98026.84
2023-01-29T01:20:35.004Z,98029.34
2023-01-29T01:23:04.619Z,98017.00
2023-01-29T01:25:33.606Z,98015.72
2023-01-29T01:28:02.248Z,98017.16
2023-01-29T01:30:33.702Z,98015.53
2023-01-29T01:33:03.847Z,98020.56
2023-01-29T01:35:32.517Z,98018.47
2023-01-29T01:38:00.932Z,98016.22
2023-01-29T01:40:28.904Z,98013.41
2023-01-29T01:42:59.600Z,98017.13
2023-01-29T01:45:30.607Z,98019.47
2023-01-29T01:48:02.508Z,98012.94
2023-01-29T01:50:39.484Z,98015.66
2023-01-29T01:53:10.431Z,98004.63
2023-01-29T01:55:44.409Z,98011.69
2023-01-29T01:58:20.829Z,98017.09
2023-01-29T02:00:49.557Z,98006.97
2023-01-29T02:03:38.571Z,98003.50
2023-01-29T02:06:27.304Z,98004.81
2023-01-29T02:09:19.102Z,98016.00
2023-01-29T02:11:47.333Z,98019.50
2023-01-29T02:14:17.161Z,98009.56
2023-01-29T02:16:45.319Z,98020.31
2023-01-29T02:19:22.973Z,98018.25
2023-01-29T02:22:11.672Z,98018.56
2023-01-29T02:25:15.427Z,97997.63
2023-01-29T02:28:24.101Z,97996.75
2023-01-29T02:31:04.309Z,97994.19
2023-01-29T02:33:43.124Z,97985.50
2023-01-29T02:36:20.930Z,97992.41
2023-01-29T02:38:57.353Z,97992.28
2023-01-29T02:41:31.460Z,97993.31
2023-01-29T02:44:06.851Z,97999.84
2023-01-29T02:46:41.514Z,98006.97
2023-01-29T02:49:16.655Z,98001.41
2023-01-29T02:51:51.357Z,98005.59
2023-01-29T02:54:25.737Z,97989.75
2023-01-29T02:56:59.144Z,97994.16
2023-01-29T02:59:34.307Z,97993.72
2023-01-29T03:02:08.303Z,97978.69
2023-01-29T03:04:45.991Z,97974.50
2023-01-29T03:07:41.308Z,97988.59
2023-01-29T03:10:17.552Z,97978.88
2023-01-29T03:12:51.214Z,97986.50
2023-01-29T03:15:25.289Z,97986.16
2023-01-29T03:18:27.962Z,97978.47
2023-01-29T03:21:26.407Z,97977.31
2023-01-29T03:24:13.886Z,97978.25
2023-01-29T03:27:02.660Z,97986.72
2023-01-29T03:29:55.626Z,97983.91
2023-01-29T03:32:31.094Z,97978.69
2023-01-29T03:35:06.461Z,97990.97
2023-01-29T03:37:39.209Z,97981.66
2023-01-29T03:40:10.487Z,97987.16
2023-01-29T03:42:55.405Z,97998.72
2023-01-29T03:45:32.404Z,97996.28
2023-01-29T03:48:09.513Z,98000.22
2023-01-29T03:50:46.702Z,98005.34
2023-01-29T03:53:23.889Z,97991.53
2023-01-29T03:55:58.330Z,97998.53
2023-01-29T03:58:37.343Z,98010.81
2023-01-29T04:01:12.237Z,98006.88
2023-01-29T04:03:44.444Z,98004.81
2023-01-29T04:06:20.028Z,98001.94
2023-01-29T04:09:03.401Z,97996.06
2023-01-29T04:11:35.571Z,97986.09
2023-01-29T04:14:03.943Z,97992.53
2023-01-29T04:16:37.734Z,97995.88
2023-01-29T04:19:26.464Z,97988.78
2023-01-29T04:22:03.357Z,97990.97
2023-01-29T04:24:32.372Z,97983.41
2023-01-29T04:27:13.404Z,97979.00
2023-01-29T04:29:56.262Z,97964.56
2023-01-29T04:32:29.814Z,97963.56
2023-01-29T04:35:02.962Z,97967.88
2023-01-29T04:37:41.684Z,97956.16
2023-01-29T04:40:21.220Z,97962.44
2023-01-29T04:42:55.423Z,97951.78
2023-01-29T04:45:33.540Z,97955.94
2023-01-29T04:48:11.469Z,97945.44
2023-01-29T04:50:43.416Z,97952.59
2023-01-29T04:53:20.130Z,97959.97
2023-01-29T04:55:52.909Z,97941.53
2023-01-29T04:58:27.947Z,97946.47
2023-01-29T05:00:56.578Z,97938.97
2023-01-29T05:03:27.846Z,97946.06
2023-01-29T05:05:58.574Z,97941.88
2023-01-29T05:08:31.747Z,97940.22
2023-01-29T05:11:01.759Z,97934.47
2023-01-29T05:13:31.979Z,97922.50
2023-01-29T05:16:04.709Z,97912.38
2023-01-29T05:18:33.313Z,97903.09
2023-01-29T05:21:07.146Z,97907.66
2023-01-29T05:23:37.062Z,97902.16
2023-01-29T05:26:06.414Z,97905.44
2023-01-29T05:28:33.912Z,97901.38
2023-01-29T05:31:02.010Z,97896.47
2023-01-29T05:33:31.907Z,97883.19
2023-01-29T05:36:01.112Z,97888.53
2023-01-29T05:38:29.173Z,97886.81
2023-01-29T05:41:01.129Z,97893.72
2023-01-29T05:43:29.241Z,97884.97
2023-01-29T05:45:59.386Z,97891.41
2023-01-29T05:48:30.074Z,97894.81
2023-01-29T05:51:01.823Z,97890.84
2023-01-29T05:53:30.517Z,97891.34
2023-01-29T05:56:02.484Z,97890.25
2023-01-29T05:58:32.240Z,97887.75
2023-01-29T06:01:09.781Z,97895.72
2023-01-29T06:03:38.027Z,97891.84
2023-01-29T06:06:06.620Z,97900.81
2023-01-29T06:08:34.909Z,97918.09
2023-01-29T06:11:05.388Z,97914.38
2023-01-29T06:13:33.501Z,97917.22
2023-01-29T06:16:01.634Z,97929.09
2023-01-29T06:18:29.892Z,97929.31
2023-01-29T06:21:02.030Z,97933.28
2023-01-29T06:23:30.696Z,97920.28
2023-01-29T06:26:01.627Z,97928.88
2023-01-29T06:28:31.975Z,97940.38
2023-01-29T06:31:12.014Z,97930.22
2023-01-29T06:33:48.978Z,97924.97
2023-01-29T06:36:17.112Z,97936.09
2023-01-29T06:38:45.379Z,97934.88
2023-01-29T06:41:17.499Z,97936.09
2023-01-29T06:43:48.310Z,97937.44
2023-01-29T06:46:16.633Z,97934.06
2023-01-29T06:48:45.097Z,97949.59
2023-01-29T06:51:13.769Z,97966.00
2023-01-29T06:53:44.116Z,97971.09
2023-01-29T06:56:14.239Z,97973.94
2023-01-29T06:58:43.658Z,97974.88
2023-01-29T07:01:29.290Z,97979.22
2023-01-29T07:04:03.048Z,98004.38
2023-01-29T07:06:31.906Z,98007.78
2023-01-29T07:09:00.381Z,98012.00
2023-01-29T07:11:28.397Z,98001.09
2023-01-29T07:13:56.786Z,97995.97
2023-01-29T07:16:27.404Z,98003.78
2023-01-29T07:18:55.473Z,98011.81
2023-01-29T07:21:23.923Z,98004.66
2023-01-29T07:23:52.194Z,97998.44
2023-01-29T07:26:20.982Z,98009.75
2023-01-29T07:28:49.551Z,98016.72
2023-01-29T07:31:17.979Z,98015.22
2023-01-29T07:33:48.262Z,98009.69
2023-01-29T07:36:16.341Z,98005.63
2023-01-29T07:38:44.535Z,98003.72
2023-01-29T07:41:13.594Z,97997.97
2023-01-29T07:43:46.083Z,98011.69
2023-01-29T07:46:14.535Z,98000.34
2023-01-29T07:48:42.693Z,97994.59
2023-01-29T07:51:12.665Z,97992.03
2023-01-29T07:53:40.737Z,97980.47
2023-01-29T07:56:09.547Z,97966.66
2023-01-29T07:58:37.927Z,97976.41
2023-01-29T08:01:12.146Z,97957.97
2023-01-29T08:04:06.275Z,97965.03
2023-01-29T08:06:35.975Z,97947.72
2023-01-29T08:09:04.368Z,97955.75
2023-01-29T08:11:32.604Z,97965.94
2023-01-29T08:14:00.708Z,97966.66
2023-01-29T08:16:28.989Z,97970.00
2023-01-29T08:18:57.169Z,97953.06
2023-01-29T08:21:25.512Z,97958.50
2023-01-29T08:23:55.132Z,97954.66
2023-01-29T08:26:23.364Z,97949.41
2023-01-29T08:28:51.429Z,97952.56
2023-01-29T08:31:21.232Z,97939.34
2023-01-29T08:33:49.825Z,97926.03
2023-01-29T08:36:18.136Z,97934.91
2023-01-29T08:38:46.366Z,97931.81
2023-01-29T08:41:16.153Z,97915.88
2023-01-29T08:43:44.287Z,97928.38
2023-01-29T08:46:12.339Z,97918.16
2023-01-29T08:48:41.204Z,97919.84
2023-01-29T08:51:10.246Z,97918.34
2023-01-29T08:53:38.376Z,97922.09
2023-01-29T08:56:07.177Z,97923.06
2023-01-29T08:58:37.045Z,97926.91
2023-01-29T09:01:09.590Z,97943.56
2023-01-29T09:03:40.946Z,97950.63
2023-01-29T09:06:10.994Z,97942.72
2023-01-29T09:08:39.713Z,97940.56
2023-01-29T09:11:07.999Z,97930.75
2023-01-29T09:13:38.021Z,97927.69
2023-01-29T09:16:06.707Z,97915.75
2023-01-29T09:18:34.853Z,97911.13
2023-01-29T09:21:03.663Z,97902.00
2023-01-29T09:23:31.705Z,97900.25
2023-01-29T09:26:01.367Z,97905.34
2023-01-29T09:28:30.099Z,97896.03
2023-01-29T09:31:02.225Z,97908.16
2023-01-29T09:33:32.712Z,97899.25
2023-01-29T09:36:00.995Z,97911.72
2023-01-29T09:38:29.089Z,97920.31
2023-01-29T09:41:05.379Z,97920.16
2023-01-29T09:43:44.133Z,97915.03
2023-01-29T09:46:22.158Z,97898.31
2023-01-29T09:49:03.188Z,97892.09
2023-01-29T09:51:36.666Z,97892.91
2023-01-29T09:54:17.408Z,97896.38
2023-01-29T09:56:47.741Z,97886.47
2023-01-29T09:59:20.163Z,97888.03
2023-01-29T10:02:00.628Z,97882.31
2023-01-29T10:04:50.872Z,97879.47
2023-01-29T10:07:35.441Z,97883.63
2023-01-29T10:10:19.864Z,97883.81
2023-01-29T10:12:59.878Z,97884.94
2023-01-29T10:15:42.660Z,97879.66
2023-01-29T10:18:38.641Z,97885.16
2023-01-29T10:21:20.884Z,97867.91
2023-01-29T10:23:52.258Z,97865.41
2023-01-29T10:26:24.804Z,97864.66
2023-01-29T10:28:56.261Z,97860.44
2023-01-29T10:31:35.280Z,97866.50
2023-01-29T10:34:13.122Z,97862.84
2023-01-29T10:36:45.062Z,97871.41
2023-01-29T10:39:17.956Z,97880.75
2023-01-29T10:42:03.509Z,97877.44
2023-01-29T10:44:45.481Z,97878.81
2023-01-29T10:47:41.708Z,97867.16
2023-01-29T10:50:22.541Z,97865.94
2023-01-29T10:53:06.213Z,97856.69
2023-01-29T10:55:45.571Z,97855.97
2023-01-29T10:58:27.693Z,97841.44
2023-01-29T11:00:55.679Z,97842.69
2023-01-29T11:03:28.313Z,97839.50
2023-01-29T11:06:04.335Z,97833.50
2023-01-29T11:08:38.563Z,97827.44
2023-01-29T11:11:10.473Z,97824.34
2023-01-29T11:13:44.024Z,97820.94
2023-01-29T11:16:12.886Z,97815.03
2023-01-29T11:18:58.754Z,97807.31
2023-01-29T11:21:30.468Z,97805.47
2023-01-29T11:24:12.700Z,97807.91
2023-01-29T11:26:43.486Z,97793.56
2023-01-29T11:29:35.988Z,97796.94
2023-01-29T11:32:07.645Z,97795.06
2023-01-29T11:34:35.764Z,97784.06
2023-01-29T11:37:16.308Z,97770.31
2023-01-29T11:39:47.240Z,97771.22
2023-01-29T11:42:21.979Z,97769.56
2023-01-29T11:44:50.794Z,97766.09
2023-01-29T11:47:21.418Z,97772.94
2023-01-29T11:49:51.749Z,97772.91
2023-01-29T11:52:24.185Z,97766.13
2023-01-29T11:54:57.134Z,97770.41
2023-01-29T11:57:32.042Z,97762.66
2023-01-29T12:00:04.275Z,97749.81
2023-01-29T12:02:38.257Z,97755.84
2023-01-29T12:05:15.726Z,97745.53
2023-01-29T12:07:49.084Z,97742.03
2023-01-29T12:10:32.846Z,97741.22
2023-01-29T12:13:19.216Z,97750.66
2023-01-29T12:15:48.873Z,97761.66
2023-01-29T12:18:26.070Z,97745.53
2023-01-29T12:20:58.683Z,97743.81
2023-01-29T12:23:37.239Z,97738.66
2023-01-29T12:26:10.694Z,97726.69
2023-01-29T12:28:47.999Z,97717.25
2023-01-29T12:31:28.543Z,97715.53
2023-01-29T12:34:03.475Z,97716.28
2023-01-29T12:36:38.344Z,97710.31
2023-01-29T12:39:11.699Z,97710.16
2023-01-29T12:41:46.163Z,97702.31
2023-01-29T12:44:18.226Z,97699.97
2023-01-29T12:46:50.735Z,97704.28
2023-01-29T12:49:24.421Z,97697.50
2023-01-29T12:52:00.269Z,97691.44
2023-01-29T12:54:36.479Z,97685.41
2023-01-29T12:57:09.660Z,97674.19
2023-01-29T12:59:43.217Z,97672.16
2023-01-29T13:02:24.960Z,97684.47
2023-01-29T13:04:59.063Z,97680.88
2023-01-29T13:07:32.148Z,97667.22
2023-01-29T13:10:08.739Z,97669.78
2023-01-29T13:12:38.295Z,97682.06
2023-01-29T13:15:18.610Z,97681.22
2023-01-29T13:17:52.155Z,97674.25
2023-01-29T13:20:25.753Z,97675.97
2023-01-29T13:22:57.577Z,97670.84
2023-01-29T13:25:27.348Z,97676.84
2023-01-29T13:27:56.565Z,97671.56
2023-01-29T13:30:31.088Z,97657.94
2023-01-29T13:33:10.483Z,97653.69
2023-01-29T13:35:42.696Z,97653.56
2023-01-29T13:38:25.654Z,97653.72
2023-01-29T13:41:00.436Z,97644.25
2023-01-29T13:43:29.170Z,97664.06
2023-01-29T13:45:57.240Z,97658.88
2023-01-29T13:48:28.528Z,97661.47
2023-01-29T13:50:58.666Z,97644.22
2023-01-29T13:53:30.632Z,97656.19
2023-01-29T13:56:31.326Z,97647.72
2023-01-29T13:58:59.888Z,97654.47
2023-01-29T14:02:04.119Z,97651.19
2023-01-29T14:04:34.203Z,97641.75
2023-01-29T14:07:04.552Z,97646.69
2023-01-29T14:10:03.435Z,97643.34
2023-01-29T14:12:40.021Z,97645.19
2023-01-29T14:15:23.309Z,97645.22
2023-01-29T14:18:04.073Z,97640.94
2023-01-29T14:20:45.430Z,97651.13
2023-01-29T14:23:25.729Z,97653.78
2023-01-29T14:25:54.093Z,97646.91
2023-01-29T14:28:27.302Z,97634.88
2023-01-29T14:30:56.624Z,97638.34
2023-01-29T14:33:28.520Z,97640.91
2023-01-29T14:35:59.618Z,97636.56
2023-01-29T14:38:29.702Z,97643.53
2023-01-29T14:41:08.651Z,97637.41
2023-01-29T14:43:38.282Z,97643.41
2023-01-29T14:46:44.572Z,97640.00
2023-01-29T14:49:12.945Z,97633.22
2023-01-29T14:51:45.803Z,97635.78
2023-01-29T14:54:24.200Z,97635.78
2023-01-29T14:57:00.504Z,97630.66
2023-01-29T14:59:37.480Z,97622.94
2023-01-29T15:02:16.831Z,97626.31
2023-01-29T15:04:49.636Z,97639.09
2023-01-29T15:07:28.978Z,97643.50
2023-01-29T15:10:21.063Z,97651.16
2023-01-29T15:12:55.423Z,97640.09
2023-01-29T15:15:34.693Z,97642.66
2023-01-29T15:18:07.029Z,97643.50
2023-01-29T15:20:37.386Z,97643.53
2023-01-29T15:23:23.867Z,97652.09
2023-01-29T15:25:55.419Z,97655.50
2023-01-29T15:28:23.916Z,97645.25
2023-01-29T15:30:57.117Z,97650.38
2023-01-29T15:33:25.907Z,97644.34
2023-01-29T15:36:06.916Z,97650.34
2023-01-29T15:38:38.445Z,97641.78
2023-01-29T15:41:19.680Z,97652.94
2023-01-29T15:43:49.637Z,97648.66
2023-01-29T15:46:26.471Z,97652.09
2023-01-29T15:48:56.132Z,97646.94
2023-01-29T15:51:27.069Z,97650.38
2023-01-29T15:53:57.568Z,97649.38
2023-01-29T15:56:29.593Z,97638.38
2023-01-29T15:59:00.528Z,97634.78
2023-01-29T16:01:30.945Z,97639.25
2023-01-29T16:04:02.509Z,97635.78
2023-01-29T16:06:35.159Z,97625.47
2023-01-29T16:09:06.137Z,97618.63
2023-01-29T16:11:35.589Z,97622.06
2023-01-29T16:14:05.164Z,97626.34
2023-01-29T16:16:35.041Z,97623.78
2023-01-29T16:19:15.762Z,97622.94
2023-01-29T16:21:46.180Z,97617.81
2023-01-29T16:24:22.363Z,97612.66
2023-01-29T16:26:53.143Z,97616.03
2023-01-29T16:29:23.713Z,97626.38
2023-01-29T16:32:00.702Z,97622.00
2023-01-29T16:34:33.939Z,97617.69
2023-01-29T16:37:05.550Z,97614.28
2023-01-29T16:39:37.822Z,97616.91
2023-01-29T16:42:25.877Z,97606.63
2023-01-29T16:45:26.984Z,97606.66
2023-01-29T16:48:03.913Z,97598.06
2023-01-29T16:50:40.739Z,97596.38
2023-01-29T16:53:22.114Z,97596.34
2023-01-29T16:55:53.428Z,97596.34
2023-01-29T16:58:26.035Z,97598.91
2023-01-29T17:00:57.954Z,97589.50
2023-01-29T17:03:29.320Z,97589.44
2023-01-29T17:05:58.127Z,97591.16
2023-01-29T17:08:28.836Z,97585.16
2023-01-29T17:10:57.542Z,97582.63
2023-01-29T17:13:29.877Z,97577.47
2023-01-29T17:16:02.918Z,97570.56
2023-01-29T17:18:32.905Z,97571.47
2023-01-29T17:21:01.155Z,97556.09
2023-01-29T17:23:29.558Z,97559.53
2023-01-29T17:25:58.513Z,97558.66
2023-01-29T17:28:28.079Z,97545.81
2023-01-29T17:31:05.896Z,97556.06
2023-01-29T17:33:38.834Z,97549.22
2023-01-29T17:36:12.099Z,97553.53
2023-01-29T17:38:41.104Z,97550.09
2023-01-29T17:41:14.493Z,97554.38
2023-01-29T17:43:44.235Z,97556.09
2023-01-29T17:46:15.499Z,97547.53
2023-01-29T17:48:46.227Z,97550.94
2023-01-29T17:51:16.891Z,97551.84
2023-01-29T17:53:47.172Z,97553.53
2023-01-29T17:56:18.047Z,97549.19
2023-01-29T17:58:46.288Z,97549.16
2023-01-29T18:01:14.521Z,97548.34
2023-01-29T18:03:42.693Z,97551.81
2023-01-29T18:06:21.527Z,97541.53
2023-01-29T18:08:50.109Z,97541.56
2023-01-29T18:11:18.149Z,97533.81
2023-01-29T18:13:46.455Z,97543.22
2023-01-29T18:16:14.601Z,97541.53
2023-01-29T18:18:43.026Z,97543.22
2023-01-29T18:21:12.624Z,97535.47
2023-01-29T18:23:41.141Z,97543.22
2023-01-29T18:26:12.253Z,97532.06
2023-01-29T18:28:40.558Z,97538.09
2023-01-29T18:31:08.970Z,97536.41
2023-01-29T18:33:37.746Z,97536.41
2023-01-29T18:36:06.778Z,97524.41
2023-01-29T18:38:36.391Z,97521.81
2023-01-29T18:41:06.003Z,97515.00
2023-01-29T18:43:34.237Z,97511.50
2023-01-29T18:46:02.523Z,97510.69
2023-01-29T18:48:31.135Z,97501.19
2023-01-29T18:50:59.512Z,97501.28
2023-01-29T18:53:28.042Z,97500.41
2023-01-29T18:55:58.686Z,97497.72
2023-01-29T18:58:35.330Z,97501.25
2023-01-29T19:01:09.417Z,97491.03
2023-01-29T19:03:38.167Z,97487.53
2023-01-29T19:06:07.949Z,97480.72
2023-01-29T19:08:36.263Z,97475.56
2023-01-29T19:11:08.334Z,97474.75
2023-01-29T19:13:38.118Z,97473.75
2023-01-29T19:16:09.195Z,97466.16
2023-01-29T19:18:37.593Z,97462.75
2023-01-29T19:21:10.167Z,97450.78
2023-01-29T19:23:38.321Z,97445.63
2023-01-29T19:26:08.489Z,97448.22
2023-01-29T19:28:36.980Z,97448.19
2023-01-29T19:31:05.395Z,97444.75
2023-01-29T19:33:33.913Z,97435.34
2023-01-29T19:36:02.834Z,97435.31
2023-01-29T19:38:33.667Z,97424.22
2023-01-29T19:41:01.851Z,97422.50
2023-01-29T19:43:31.777Z,97416.53
2023-01-29T19:46:01.584Z,97408.75
2023-01-29T19:48:29.880Z,97413.91
2023-01-29T19:51:00.355Z,97413.91
2023-01-29T19:53:30.068Z,97413.06
2023-01-29T19:55:59.427Z,97412.22
2023-01-29T19:58:27.726Z,97407.13
2023-01-29T20:00:58.595Z,97401.09
2023-01-29T20:03:27.987Z,97412.19
2023-01-29T20:05:56.063Z,97405.31
2023-01-29T20:08:24.955Z,97396.84
2023-01-29T20:10:53.401Z,97389.13
2023-01-29T20:13:21.483Z,97390.84
2023-01-29T20:15:51.251Z,97394.28
2023-01-29T20:18:20.961Z,97384.84
2023-01-29T20:20:53.185Z,97391.72
2023-01-29T20:23:36.269Z,97385.72
2023-01-29T20:26:06.602Z,97386.56
2023-01-29T20:28:35.841Z,97380.56
2023-01-29T20:31:04.839Z,97382.28
2023-01-29T20:33:36.988Z,97380.59
2023-01-29T20:36:09.206Z,97367.75
2023-01-29T20:38:37.581Z,97371.16
2023-01-29T20:41:07.623Z,97361.75
2023-01-29T20:43:36.536Z,97366.03
2023-01-29T20:46:06.477Z,97373.72
2023-01-29T20:48:36.336Z,97370.31
2023-01-29T20:51:06.642Z,97368.53
2023-01-29T20:53:34.898Z,97357.47
2023-01-29T20:56:04.765Z,97358.34
2023-01-29T20:58:33.434Z,97347.19
2023-01-29T21:01:01.809Z,97346.34
2023-01-29T21:03:30.655Z,97339.50
2023-01-29T21:06:00.197Z,97332.63
2023-01-29T21:08:28.900Z,97336.97
2023-01-29T21:10:57.078Z,97325.75
2023-01-29T21:13:25.153Z,97322.41
2023-01-29T21:15:54.001Z,97318.97
2023-01-29T21:18:22.638Z,97319.84
2023-01-29T21:20:51.331Z,97309.56
2023-01-29T21:23:20.871Z,97303.56
2023-01-29T21:25:49.182Z,97307.00
2023-01-29T21:28:17.605Z,97295.91
2023-01-29T21:30:46.607Z,97300.13
2023-01-29T21:33:14.714Z,97299.31
2023-01-29T21:35:45.141Z,97287.28
2023-01-29T21:38:13.138Z,97294.19
2023-01-29T21:40:42.468Z,97292.41
2023-01-29T21:43:12.805Z,97292.38
2023-01-29T21:45:41.811Z,97289.00
2023-01-29T21:48:11.002Z,97283.91
2023-01-29T21:50:39.501Z,97285.50
2023-01-29T21:53:07.878Z,97286.44
2023-01-29T21:55:36.145Z,97276.97
2023-01-29T21:58:05.591Z,97267.66
2023-01-29T22:00:34.110Z,97263.28
2023-01-29T22:03:02.776Z,97254.81
2023-01-29T22:05:30.852Z,97257.41
2023-01-29T22:07:59.392Z,97255.72
2023-01-29T22:10:28.642Z,97256.56
2023-01-29T22:12:56.861Z,97248.00
2023-01-29T22:15:26.439Z,97241.16
2023-01-29T22:17:54.500Z,97246.25
2023-01-29T22:20:29.764Z,97239.31
2023-01-29T22:23:00.517Z,97232.56
2023-01-29T22:25:29.241Z,97222.25
2023-01-29T22:27:57.489Z,97230.81
2023-01-29T22:30:27.630Z,97206.78
2023-01-29T22:32:56.309Z,97207.47
2023-01-29T22:35:24.503Z,97208.34
2023-01-29T22:37:52.471Z,97200.81
2023-01-29T22:40:21.157Z,97200.78
2023-01-29T22:42:49.584Z,97197.88
2023-01-29T22:45:18.087Z,97188.88
2023-01-29T22:47:47.848Z,97179.34
2023-01-29T22:50:16.311Z,97176.72
2023-01-29T22:52:53.617Z,97169.03
2023-01-29T22:55:21.954Z,97166.56
2023-01-29T22:57:50.867Z,97170.00
2023-01-29T23:00:20.164Z,97153.91
2023-01-29T23:02:50.171Z,97162.19
2023-01-29T23:05:18.920Z,97158.81
2023-01-29T23:07:47.357Z,97143.41
2023-01-29T23:10:17.044Z,97145.31
2023-01-29T23:12:45.479Z,97137.53
2023-01-29T23:15:13.896Z,97136.78
2023-01-29T23:17:41.862Z,97128.94
2023-01-29T23:20:12.907Z,97130.56
2023-01-29T23:22:40.970Z,97126.53
2023-01-29T23:25:09.798Z,97119.69
2023-01-29T23:27:36.804Z,97098.34
2023-01-29T23:30:06.679Z,97103.34
2023-01-29T23:32:35.480Z,97099.91
2023-01-29T23:35:03.727Z,97089.75
2023-01-29T23:37:33.122Z,97082.13
2023-01-29T23:40:01.095Z,97082.91
2023-01-29T23:42:29.299Z,97089.69
2023-01-29T23:44:57.430Z,97093.13
2023-01-29T23:47:25.743Z,97095.72
2023-01-29T23:49:53.906Z,97082.84
2023-01-29T23:52:22.050Z,97075.25
2023-01-29T23:54:51.449Z,97061.69
2023-01-29T23:57:19.503Z,97061.59
2023-01-29T23:59:47.685Z,97045.53
